Aérodrome :
LOGIN :

S'inscrire | Disclaimer

   EN    FR    IT 

 










Légende :    VFR   VFR Marginal   IFR   IFR Intensif   IFR Très Intensif
Visi : 
Plafond : 
>= 8 km
>= 3000ft
5 à 8 km
1000 à 3000 ft
1500m à 5 km
500 à 1000 ft
800 à 1500m
200 à 500 ft
< 800m
< 200 ft
Symboles :   Orages  Brouillard  Fortes neiges  Fortes précipitations  Vent > 20 kt
SIGMETs :   Divers  Orages  Givrage  Turbulence  Onde Orograph.  Cendres Volcan.






- Altitude de l'aérodrome : 257 ft
- Code IATA : MAN


EGCC - Manchester

DERNIER METAR :
  • 190420Z 13002KT CAVOK 15/14 Q1017 NOSIG

METARs EXPIRÉS :
  • 190350Z AUTO VRB01KT 9999 NCD 16/14 Q1017
  • 190320Z AUTO VRB02KT 9999 NCD 16/14 Q1017
  • 190250Z AUTO 16003KT 9999 NCD 17/14 Q1017
  • 190220Z AUTO 16003KT 9999 SCT043 17/15 Q1017
  • 190150Z AUTO 15002KT 9999 FEW043 16/15 Q1017
  • 190120Z AUTO 18003KT 150V210 9999 NCD 16/15 Q1018
  • 190050Z AUTO VRB02KT 9999 FEW048 16/15 Q1018 NOSIG
  • 190020Z AUTO VRB02KT 9999 NCD 16/15 Q1018
  • 182350Z AUTO VRB02KT 9999 NCD 18/16 Q1018 NOSIG

TAF TAF EGCC
Valide du 19 à 00h jusqu'au 20 à 06h UTC


182259Z 1900/2006 VRB03KT 9999 FEW040
PROB40 1902/1908 6000
BECMG 1907/1911 19010KT
BECMG 1918/1922 30004KT
PROB30
TEMPO 2000/2006 7000 -RA BKN012
ATIS : +44 161 499 2324



MET'MAP, la Météo Aéronautique d'un coup d'oeil ! - Copyright ORBIFLY Décembre 2007 - Disclaimer

ORBIFLY MET'MAP TEAM :

Programmation & Développement : Alexandra Zaïnal
Sur une idée originale de : Baudouin d'Aumeries
Soutien technique & logistique : Manuel Goepfert
Assistance : Marc-Olivier Méhu




SOURCES & CREDITS :

   NOAA